Flagler Beach, Florida
Current Conditions -  °F | °C
As of 2:53 AM on Thursday 29 Jan 2015 (Local Time) from KDAB Reporting Station
Scattered Clouds Scattered Clouds  
Wind Chill: 37°   Ceiling: Unl
Heat Index: 40°   Visibility: 10mi
Dew Point: 37°   Wind: 5mph
Humidity: 89%   Direction: 290°WNW
Pressure: 30.27"   Gusts: NA
Location:  29.47°N, 81.13°W
Report Text: KDAB 290753Z 29004KT 10SM FEW040 SCT070 04/03 A3027 RMK AO2 SLP247 T00440028
Loading
Personal Weather Stations






























Interactive Weather Map New forecast layout! Learn more

10-Day Weather Forecast

Advertisements
Track Severe Weather on mobile